Time;durP1;ratioP1;P1;durP2;ratioP2;P2;SDS_P1;SDS_P2;PMS_P1;PMS_P2;Temp;Humidity;BMP_temperature;BMP_pressure;BME280_temperature;BME280_humidity;BME280_pressure;Samples;Min_cycle;Max_cycle;Signal;HPM_P1;HPM_P2
2023/02/06 00:03:46;;;;;;;9.05;8.15;;;;;;;-1.92;100.00;100562.16;15288114;19;20018;-79
2023/02/06 00:09:12;;;;;;;9.50;8.52;;;;;;;-1.87;100.00;100549.75;15344705;19;20096;-80
2023/02/06 00:14:37;;;;;;;8.80;7.90;;;;;;;-1.83;100.00;100536.47;15305043;19;20059;-79
2023/02/06 00:20:06;;;;;;;11.10;9.05;;;;;;;-1.83;100.00;100547.91;15300603;19;20379;-79
2023/02/06 00:25:30;;;;;;;10.13;8.98;;;;;;;-1.78;100.00;100555.75;15302849;19;20117;-79
2023/02/06 00:30:54;;;;;;;11.30;8.43;;;;;;;-1.76;100.00;100543.38;15301562;19;20078;-79
2023/02/06 00:36:24;;;;;;;9.00;8.07;;;;;;;-1.71;100.00;100549.44;15310127;19;20022;-79
2023/02/06 00:41:55;;;;;;;9.77;8.40;;;;;;;-1.65;100.00;100543.16;15301341;19;20014;-79
2023/02/06 00:47:21;;;;;;;9.70;8.70;;;;;;;-1.60;100.00;100542.19;15299996;19;20011;-81
2023/02/06 00:52:49;;;;;;;9.82;8.50;;;;;;;-1.59;100.00;100545.66;15295249;19;20018;-79
2023/02/06 00:58:13;;;;;;;11.43;9.23;;;;;;;-1.59;100.00;100535.09;15295612;19;20043;-79
2023/02/06 01:03:39;;;;;;;10.30;9.20;;;;;;;-1.57;100.00;100549.16;15293385;19;20370;-80
2023/02/06 01:09:06;;;;;;;11.40;9.27;;;;;;;-1.53;100.00;100565.81;15294309;19;20014;-80
2023/02/06 01:14:32;;;;;;;10.10;9.10;;;;;;;-1.52;100.00;100571.06;15291677;19;20522;-78
2023/02/06 01:19:57;;;;;;;10.20;9.00;;;;;;;-1.48;100.00;100564.81;15295290;19;20039;-79
2023/02/06 01:25:24;;;;;;;10.77;8.93;;;;;;;-1.45;100.00;100567.41;15291952;19;20014;-78
2023/02/06 01:30:48;;;;;;;10.55;8.75;;;;;;;-1.40;100.00;100573.47;15294603;19;20025;-80
2023/02/06 01:36:14;;;;;;;10.82;8.98;;;;;;;-1.35;100.00;100581.28;15291321;19;20010;-79
2023/02/06 01:41:49;;;;;;;9.43;7.88;;;;;;;-1.27;100.00;100565.25;15284965;19;20018;-79
2023/02/06 01:47:15;;;;;;;11.65;8.38;;;;;;;-1.22;100.00;100552.81;15292502;19;20014;-79
2023/02/06 01:52:39;;;;;;;10.00;8.20;;;;;;;-1.16;100.00;100550.03;15287813;19;20021;-80
2023/02/06 01:58:07;;;;;;;12.52;7.78;;;;;;;-1.11;100.00;100552.56;15293231;19;20014;-79
2023/02/06 02:03:34;;;;;;;11.82;7.97;;;;;;;-1.11;100.00;100547.28;15289096;19;20093;-79
2023/02/06 02:08:59;;;;;;;10.57;7.57;;;;;;;-1.06;100.00;100549.84;15292295;19;20014;-79
2023/02/06 02:14:34;;;;;;;11.60;8.15;;;;;;;-1.04;100.00;100548.00;15287798;19;20050;-80
2023/02/06 02:20:33;;;;;;;9.25;7.07;;;;;;;-1.08;100.00;100536.63;15298879;19;20058;-79
2023/02/06 02:26:28;;;;;;;7.18;4.70;;;;;;;-1.08;100.00;100520.75;15298531;19;20025;-80
2023/02/06 02:32:34;;;;;;;6.72;4.78;;;;;;;-1.05;100.00;100514.53;15313015;19;20027;-79
2023/02/06 02:38:21;;;;;;;10.77;7.80;;;;;;;-1.06;100.00;100494.28;15302459;19;20024;-79
2023/02/06 02:43:49;;;;;;;9.70;8.70;;;;;;;-1.06;100.00;100503.09;15293458;19;20093;-79
2023/02/06 02:49:21;;;;;;;9.50;8.60;;;;;;;-1.04;100.00;100490.69;15347452;19;20007;-80
2023/02/06 02:54:48;;;;;;;;;;;;;;;-1.08;100.00;100483.72;15340551;19;20023;-79
2023/02/06 03:00:16;;;;;;;13.18;8.55;;;;;;;-1.04;100.00;100480.09;15300305;19;19949;-82
2023/02/06 03:06:00;;;;;;;11.93;8.85;;;;;;;-1.06;100.00;100486.34;15302622;19;20011;-79
2023/02/06 03:11:29;;;;;;;10.30;9.00;;;;;;;-1.04;100.00;100480.09;15305365;19;20034;-80
2023/02/06 03:16:59;;;;;;;11.20;8.45;;;;;;;-1.03;100.00;100481.84;15300110;19;20019;-78
2023/02/06 03:22:26;;;;;;;13.30;9.68;;;;;;;-1.03;100.00;100486.25;15300135;19;20054;-79
2023/02/06 03:27:58;;;;;;;11.10;9.77;;;;;;;-1.09;100.00;100474.94;15310770;19;20007;-79
2023/02/06 03:33:28;;;;;;;10.57;9.32;;;;;;;-1.09;100.00;100471.41;15306278;19;20619;-80
2023/02/06 03:38:54;;;;;;;11.90;9.30;;;;;;;-1.07;100.00;100472.25;15282822;19;20104;-77
2023/02/06 03:44:30;;;;;;;11.95;9.43;;;;;;;-1.05;100.00;100483.66;15269013;19;20489;-77
2023/02/06 03:49:58;;;;;;;12.07;9.57;;;;;;;-1.04;100.00;100476.56;15272235;19;20421;-79
2023/02/06 03:55:26;;;;;;;10.02;9.02;;;;;;;-1.03;100.00;100475.66;15279430;19;20010;-80
2023/02/06 04:00:54;;;;;;;11.70;9.63;;;;;;;-1.00;100.00;100480.91;15292384;19;20014;-79
2023/02/06 04:06:18;;;;;;;13.05;10.23;;;;;;;-1.00;100.00;100489.69;15304141;19;20027;-78
2023/02/06 04:11:43;;;;;;;12.30;9.60;;;;;;;-0.99;100.00;100488.78;15302987;19;20007;-80
2023/02/06 04:17:14;;;;;;;11.32;9.63;;;;;;;-0.98;100.00;100490.53;15333334;19;20007;-80
2023/02/06 04:23:00;;;;;;;10.77;9.18;;;;;;;-0.96;100.00;100487.88;15319987;19;20015;-80
2023/02/06 04:28:25;;;;;;;10.70;9.15;;;;;;;-0.94;100.00;100481.63;15316259;19;20027;-81
2023/02/06 04:33:54;;;;;;;11.70;9.40;;;;;;;-0.91;100.00;100469.22;15312790;19;20014;-79
2023/02/06 04:39:18;;;;;;;11.40;9.18;;;;;;;-0.91;100.00;100483.31;15314281;19;20094;-79
2023/02/06 04:44:44;;;;;;;11.75;9.90;;;;;;;-0.89;100.00;100478.84;15308536;19;20099;-80
2023/02/06 04:50:12;;;;;;;11.95;9.20;;;;;;;-0.88;100.00;100464.72;15293207;19;20010;-81
2023/02/06 04:55:37;;;;;;;11.05;9.73;;;;;;;-0.87;100.00;100486.75;15297066;19;20485;-80
2023/02/06 05:01:05;;;;;;;10.32;9.15;;;;;;;-0.85;100.00;100500.81;15303590;19;20086;-80
2023/02/06 05:11:56;;;;;;;11.35;9.88;;;;;;;-0.82;100.00;100506.03;15272279;19;20039;-49
2023/02/06 05:17:21;;;;;;;10.63;9.48;;;;;;;-0.81;100.00;100497.19;15275933;19;20078;-49
2023/02/06 05:22:46;;;;;;;15.02;10.55;;;;;;;-0.83;100.00;100481.38;15276208;19;20085;-48
2023/02/06 05:28:13;;;;;;;13.45;10.70;;;;;;;-0.87;100.00;100471.75;15271550;19;20011;-47
2023/02/06 05:33:37;;;;;;;15.27;11.85;;;;;;;-0.88;100.00;100458.56;15272677;19;20031;-49
2023/02/06 05:39:03;;;;;;;16.45;12.05;;;;;;;-0.89;100.00;100468.28;15267921;19;20014;-47
2023/02/06 05:44:31;;;;;;;16.27;11.23;;;;;;;-0.88;100.00;100469.16;15279032;19;20105;-49
2023/02/06 05:49:56;;;;;;;14.07;12.30;;;;;;;-0.86;100.00;100464.69;15282236;19;20006;-46
2023/02/06 05:55:21;;;;;;;13.43;11.98;;;;;;;-0.86;100.00;100472.63;15270926;19;20019;-48
2023/02/06 06:00:49;;;;;;;14.75;12.63;;;;;;;-0.87;100.00;100478.81;15272918;19;20105;-47
2023/02/06 06:06:13;;;;;;;17.92;12.60;;;;;;;-0.86;100.00;100476.16;15275882;19;20082;-46
2023/02/06 06:11:45;;;;;;;14.35;12.75;;;;;;;-0.85;100.00;100488.47;15271180;19;20429;-49
2023/02/06 06:17:12;;;;;;;15.73;12.98;;;;;;;-0.83;100.00;100484.03;15270224;19;20396;-49
2023/02/06 06:22:37;;;;;;;17.70;13.32;;;;;;;-0.82;100.00;100479.59;15275800;19;20021;-47
2023/02/06 06:28:02;;;;;;;16.83;14.40;;;;;;;-0.80;100.00;100472.47;15269975;19;20489;-49
2023/02/06 06:33:31;;;;;;;18.25;14.95;;;;;;;-0.80;100.00;100472.47;15267647;19;20021;-48
2023/02/06 06:38:55;;;;;;;19.85;14.77;;;;;;;-0.78;100.00;100481.25;15269731;19;20014;-48
2023/02/06 06:44:21;;;;;;;14.90;13.18;;;;;;;-0.78;100.00;100468.88;15270265;19;20487;-49
2023/02/06 06:49:48;;;;;;;16.55;12.38;;;;;;;-0.79;100.00;100467.13;15270023;19;20074;-47
2023/02/06 06:55:14;;;;;;;20.35;13.02;;;;;;;-0.80;100.00;100456.59;15269566;19;20026;-47
2023/02/06 07:00:40;;;;;;;17.73;13.38;;;;;;;-0.82;100.00;100485.72;15271375;19;20708;-47
2023/02/06 07:06:08;;;;;;;20.35;14.73;;;;;;;-0.81;100.00;100497.19;15266080;19;20066;-47
2023/02/06 07:11:39;;;;;;;22.67;16.75;;;;;;;-0.82;100.00;100508.69;15266930;19;20026;-48
2023/02/06 07:17:04;;;;;;;29.90;19.05;;;;;;;-0.85;100.00;100528.19;15265228;19;20090;-48
2023/02/06 07:22:32;;;;;;;29.63;20.27;;;;;;;-0.85;100.00;100517.59;15267618;19;20455;-47
2023/02/06 07:27:57;;;;;;;33.90;21.75;;;;;;;-0.83;100.00;100536.06;15268920;19;20022;-50
2023/02/06 07:33:24;;;;;;;36.15;21.60;;;;;;;-0.83;100.00;100536.06;15267558;19;20018;-49
2023/02/06 07:38:51;;;;;;;35.58;23.35;;;;;;;-0.82;100.00;100562.47;15263516;19;20021;-47
2023/02/06 07:44:19;;;;;;;37.95;25.05;;;;;;;-0.81;100.00;100561.59;15269828;19;20010;-47
2023/02/06 07:49:44;;;;;;;41.35;25.88;;;;;;;-0.80;100.00;100551.88;15268323;19;20017;-49
2023/02/06 07:55:11;;;;;;;35.88;24.85;;;;;;;-0.80;100.00;100552.75;15268053;19;20015;-46
2023/02/06 08:00:37;;;;;;;40.42;26.85;;;;;;;-0.79;100.00;100558.91;15267881;19;20014;-47
2023/02/06 08:06:03;;;;;;;40.00;27.08;;;;;;;-0.79;100.00;100546.53;15266719;19;20622;-49
2023/02/06 08:11:38;;;;;;;49.30;28.92;;;;;;;-0.79;100.00;100562.44;15258455;19;20516;-47
2023/02/06 08:17:03;;;;;;;49.85;29.85;;;;;;;-0.79;100.00;100558.91;15264295;19;20015;-47
2023/02/06 08:22:27;;;;;;;54.17;30.92;;;;;;;-0.79;100.00;100550.97;15267574;19;20449;-47
2023/02/06 08:27:57;;;;;;;56.65;32.28;;;;;;;-0.74;100.00;100551.72;15275940;19;20376;-47
2023/02/06 08:33:23;;;;;;;57.33;32.40;;;;;;;-0.76;100.00;100550.88;15280959;19;20022;-48
2023/02/06 08:38:49;;;;;;;60.67;32.05;;;;;;;-0.73;100.00;100550.81;15278107;19;20159;-47
2023/02/06 08:44:19;;;;;;;57.78;32.50;;;;;;;-0.70;100.00;100552.50;15276225;19;20014;-47
2023/02/06 08:49:43;;;;;;;58.95;32.75;;;;;;;-0.69;100.00;100560.44;15279167;19;20020;-48
2023/02/06 08:55:08;;;;;;;59.13;32.33;;;;;;;-0.67;100.00;100569.22;15280997;19;20358;-48
2023/02/06 09:00:35;;;;;;;58.85;31.60;;;;;;;-0.65;100.00;100577.97;15282699;19;20031;-48
2023/02/06 09:06:00;;;;;;;54.55;31.40;;;;;;;-0.59;100.00;100570.78;15282398;19;20024;-48
2023/02/06 09:11:35;;;;;;;44.03;28.90;;;;;;;-0.53;100.00;100573.31;15282864;19;20022;-48
2023/02/06 09:17:02;;;;;;;36.15;24.70;;;;;;;-0.50;100.00;100560.88;15278846;19;20017;-48
2023/02/06 09:22:27;;;;;;;38.65;26.08;;;;;;;-0.46;100.00;100556.34;15285866;19;20017;-47
2023/02/06 09:27:51;;;;;;;28.45;21.80;;;;;;;-0.40;100.00;100544.72;15254743;19;20025;-47
2023/02/06 09:33:20;;;;;;;28.33;20.38;;;;;;;-0.33;100.00;100536.59;15280020;19;20010;-50
2023/02/06 09:38:46;;;;;;;25.05;18.65;;;;;;;-0.28;100.00;100530.28;15272537;19;20367;-48
2023/02/06 09:44:20;;;;;;;21.63;17.63;;;;;;;-0.26;100.00;100539.97;15278130;19;20010;-47
2023/02/06 09:49:51;;;;;;;23.55;18.58;;;;;;;-0.22;100.00;100535.44;15275753;19;20015;-48
2023/02/06 09:55:25;;;;;;;23.20;16.95;;;;;;;-0.18;100.00;100537.97;15278835;19;20471;-51
2023/02/06 10:00:54;;;;;;;23.48;16.38;;;;;;;-0.14;100.00;100536.09;15279516;19;20601;-50
2023/02/06 10:06:31;;;;;;;18.80;15.27;;;;;;;-0.16;100.00;100532.63;15278425;19;20617;-53
2023/02/06 10:12:07;;;;;;;15.43;12.70;;;;;;;-0.08;100.00;100530.66;15272815;19;20240;-46
2023/02/06 10:17:36;;;;;;;15.27;10.70;;;;;;;-0.04;100.00;100504.94;15267745;19;20014;-48
2023/02/06 10:23:17;;;;;;;11.57;8.48;;;;;;;-0.03;100.00;100494.28;15274785;19;20802;-47
2023/02/06 10:28:42;;;;;;;11.52;8.45;;;;;;;-0.02;100.00;100466.88;15273039;19;20089;-47
2023/02/06 10:34:30;;;;;;;11.45;8.35;;;;;;;-0.04;100.00;100450.13;15261134;19;20022;-53
2023/02/06 10:40:20;;;;;;;10.45;8.15;;;;;;;-0.05;100.00;100427.19;15272847;19;20018;-50
2023/02/06 10:45:51;;;;;;;11.10;8.65;;;;;;;-0.01;100.00;100422.69;15268819;19;20027;-51
2023/02/06 10:51:26;;;;;;;11.43;8.93;;;;;;;-0.07;100.00;100421.09;15279706;19;20042;-48
2023/02/06 10:56:56;;;;;;;13.20;8.80;;;;;;;-0.04;100.00;100399.78;15289049;19;20019;-52
2023/02/06 11:02:25;;;;;;;9.77;7.70;;;;;;;-0.09;100.00;100404.38;15269589;19;20038;-54
2023/02/06 11:07:53;;;;;;;10.50;7.50;;;;;;;-0.06;100.00;100401.59;15270394;19;20483;-55
2023/02/06 11:13:27;;;;;;;9.60;6.47;;;;;;;-0.12;100.00;100396.50;15269548;19;20019;-56
2023/02/06 11:18:55;;;;;;;7.40;5.90;;;;;;;-0.09;100.00;100401.72;15271382;19;20355;-50
2023/02/06 11:24:22;;;;;;;8.15;5.75;;;;;;;-0.14;100.00;100392.16;15263269;19;20487;-55
2023/02/06 11:29:55;;;;;;;8.25;5.88;;;;;;;-0.13;100.00;100378.88;15274284;19;20007;-49
2023/02/06 11:35:26;;;;;;;8.45;5.30;;;;;;;-0.16;100.00;100381.59;15266427;19;20019;-50
2023/02/06 11:40:51;;;;;;;6.97;5.35;;;;;;;-0.16;100.00;100384.25;15273522;19;20015;-51
2023/02/06 11:46:21;;;;;;;7.13;5.55;;;;;;;-0.14;100.00;100374.47;15265938;19;20368;-51
2023/02/06 11:51:58;;;;;;;6.72;5.07;;;;;;;-0.14;100.00;100377.13;15268987;19;20410;-54
2023/02/06 11:57:26;;;;;;;7.00;4.90;;;;;;;-0.09;100.00;100361.09;15260371;19;20602;-51
2023/02/06 12:03:00;;;;;;;5.13;4.20;;;;;;;-0.01;100.00;100354.66;15295566;19;20105;-54
2023/02/06 12:08:27;;;;;;;5.32;4.40;;;;;;;0.00;100.00;100371.44;15298463;19;20024;-51
2023/02/06 12:13:57;;;;;;;6.30;4.40;;;;;;;-0.04;100.00;100362.69;15294827;19;20074;-51
2023/02/06 12:19:32;;;;;;;5.10;4.57;;;;;;;0.01;100.00;100353.75;15296806;19;20007;-52
2023/02/06 12:24:59;;;;;;;6.25;4.90;;;;;;;0.00;100.00;100355.53;15291029;19;20024;-54
2023/02/06 12:30:39;;;;;;;6.80;5.15;;;;;;;-0.05;100.00;100353.00;15292156;19;20014;-51
2023/02/06 12:36:17;;;;;;;6.28;5.53;;;;;;;-0.10;100.00;100362.88;15292712;19;20017;-50
2023/02/06 12:41:55;;;;;;;8.35;6.05;;;;;;;-0.14;100.00;100370.97;15295512;19;20103;-51
2023/02/06 12:47:27;;;;;;;8.95;6.70;;;;;;;-0.14;100.00;100376.28;15295840;19;20010;-51
2023/02/06 12:53:02;;;;;;;10.48;7.03;;;;;;;-0.18;100.00;100373.69;15290969;19;20022;-54
2023/02/06 12:58:35;;;;;;;10.50;7.53;;;;;;;-0.24;100.00;100386.25;15285056;19;20021;-53
2023/02/06 13:04:03;;;;;;;10.50;8.52;;;;;;;-0.25;100.00;100398.66;15291581;19;20038;-53
2023/02/06 13:09:37;;;;;;;8.27;7.07;;;;;;;-0.30;100.00;100418.22;15294396;19;20015;-53
2023/02/06 13:15:06;;;;;;;8.73;7.82;;;;;;;-0.32;100.00;100418.25;15271664;19;20018;-57
2023/02/06 13:20:32;;;;;;;10.07;8.75;;;;;;;-0.36;100.00;100414.81;15278604;19;20018;-53
2023/02/06 13:26:01;;;;;;;9.35;8.38;;;;;;;-0.36;100.00;100413.97;15269713;19;20712;-50
2023/02/06 13:31:37;;;;;;;10.52;9.40;;;;;;;-0.38;100.00;100421.09;15273250;19;20138;-54
2023/02/06 13:37:21;;;;;;;11.45;10.10;;;;;;;-0.39;100.00;100425.50;15275629;19;20015;-52
2023/02/06 13:42:58;;;;;;;9.30;8.30;;;;;;;-0.44;100.00;100435.38;15276558;19;20021;-52
2023/02/06 13:48:46;;;;;;;8.00;7.20;;;;;;;-0.45;100.00;100436.28;15276899;19;20086;-54
2023/02/06 13:54:34;;;;;;;9.88;8.40;;;;;;;-0.40;100.00;100439.66;15269773;19;20706;-52
2023/02/06 14:00:05;;;;;;;9.02;8.13;;;;;;;-0.39;100.00;100435.25;15278106;19;20018;-50
2023/02/06 14:05:41;;;;;;;9.13;8.23;;;;;;;-0.41;100.00;100439.69;15268124;19;20086;-51
2023/02/06 14:11:29;;;;;;;10.70;9.60;;;;;;;-0.44;100.00;100438.00;15275638;19;20014;-49
2023/02/06 14:17:07;;;;;;;12.15;10.95;;;;;;;-0.44;100.00;100427.41;15271780;19;20014;-52
2023/02/06 14:22:39;;;;;;;13.18;11.73;;;;;;;-0.45;100.00;100441.56;15270083;19;20479;-51
2023/02/06 14:28:17;;;;;;;15.20;12.60;;;;;;;-0.43;100.00;100445.06;15267372;19;20605;-55
2023/02/06 14:33:58;;;;;;;12.60;11.13;;;;;;;-0.47;100.00;100457.47;15270291;19;20014;-51
2023/02/06 14:39:51;;;;;;;11.70;10.50;;;;;;;-0.44;100.00;100459.19;15259881;19;20025;-54
2023/02/06 14:45:32;;;;;;;15.23;11.82;;;;;;;-0.44;100.00;100469.78;15266377;19;20021;-53
2023/02/06 14:51:05;;;;;;;13.07;11.25;;;;;;;-0.42;100.00;100470.63;15274974;19;20360;-55
2023/02/06 14:56:32;;;;;;;13.57;12.18;;;;;;;-0.43;100.00;100492.72;15270038;19;20021;-55
2023/02/06 15:01:59;;;;;;;14.48;12.05;;;;;;;-0.45;100.00;100489.25;15264833;19;20530;-57
2023/02/06 15:07:31;;;;;;;16.17;14.07;;;;;;;-0.45;100.00;100504.25;15267431;19;20037;-55
2023/02/06 15:12:59;;;;;;;17.35;14.68;;;;;;;-0.48;100.00;100510.50;15271405;19;20024;-53
2023/02/06 15:18:25;;;;;;;18.63;15.32;;;;;;;-0.49;100.00;100508.75;15268691;19;20038;-52
2023/02/06 15:24:05;;;;;;;14.18;12.68;;;;;;;-0.50;100.00;100507.91;14757832;19;10001694;-51
2023/02/06 15:29:31;;;;;;;10.43;9.07;;;;;;;-0.47;100.00;100522.84;15272770;19;20074;-49
2023/02/06 15:34:56;;;;;;;9.35;8.35;;;;;;;-0.47;100.00;100539.56;15262483;19;20070;-52
2023/02/06 15:40:29;;;;;;;8.77;7.97;;;;;;;-0.46;100.00;100535.16;15267041;19;20018;-50
2023/02/06 15:45:57;;;;;;;9.07;8.18;;;;;;;-0.48;100.00;100536.97;15267304;19;20070;-55
2023/02/06 15:51:25;;;;;;;9.55;8.60;;;;;;;-0.48;100.00;100539.63;15268498;19;20021;-54
2023/02/06 15:56:58;;;;;;;12.52;11.20;;;;;;;-0.48;100.00;100550.22;15254959;19;20025;-53
2023/02/06 16:02:27;;;;;;;18.42;13.07;;;;;;;-0.52;100.00;100543.25;15257432;19;20025;-51
2023/02/06 16:07:56;;;;;;;14.13;11.98;;;;;;;-0.52;100.00;100556.50;15261758;19;20014;-50
2023/02/06 16:13:27;;;;;;;14.38;12.43;;;;;;;-0.52;100.00;100561.78;15246087;19;20037;-54
2023/02/06 16:18:54;;;;;;;15.93;12.07;;;;;;;-0.54;100.00;100580.38;15257028;19;20022;-52
2023/02/06 16:24:19;;;;;;;13.88;11.35;;;;;;;-0.55;100.00;100575.13;15260639;19;20509;-54
2023/02/06 16:29:46;;;;;;;12.30;10.30;;;;;;;-0.58;100.00;100578.69;15265294;19;20078;-52
2023/02/06 16:35:21;;;;;;;23.23;12.57;;;;;;;-0.58;100.00;100589.28;15291938;19;20893;-81
2023/02/06 16:40:47;;;;;;;18.73;12.90;;;;;;;-0.64;100.00;100585.00;15311535;19;20010;-81
2023/02/06 16:46:14;;;;;;;18.40;13.13;;;;;;;-0.70;100.00;100585.16;15306445;19;20014;-83
2023/02/06 16:51:41;;;;;;;17.00;13.07;;;;;;;-0.68;100.00;100593.06;15315276;19;20025;-81
2023/02/06 16:57:13;;;;;;;15.35;11.75;;;;;;;-0.72;100.00;100592.28;15313029;19;20365;-80
2023/02/06 17:02:41;;;;;;;13.07;10.90;;;;;;;-0.79;100.00;100598.63;15327764;19;20375;-80
2023/02/06 17:08:05;;;;;;;13.45;11.45;;;;;;;-0.85;100.00;100597.00;15315507;19;20615;-81
2023/02/06 17:13:30;;;;;;;8.07;7.28;;;;;;;-0.94;100.00;100603.34;15310871;19;20018;-80
2023/02/06 17:18:58;;;;;;;8.45;7.55;;;;;;;-0.99;100.00;100593.78;15305259;19;20355;-79
2023/02/06 17:24:25;;;;;;;10.75;9.65;;;;;;;-1.01;100.00;100590.28;15317880;19;20015;-80
2023/02/06 17:29:52;;;;;;;13.18;11.88;;;;;;;-1.05;100.00;100600.06;15300108;19;20018;-81
2023/02/06 17:35:20;;;;;;;17.05;14.68;;;;;;;-1.08;100.00;100600.13;15290417;19;20024;-81
2023/02/06 17:40:45;;;;;;;15.25;13.65;;;;;;;-1.12;100.00;100598.47;15289571;19;20038;-80
2023/02/06 17:46:12;;;;;;;17.40;14.50;;;;;;;-1.12;100.00;100620.50;15286085;19;20552;-80
2023/02/06 17:51:40;;;;;;;18.55;16.50;;;;;;;-1.18;100.00;100615.34;15290970;19;20017;-80
2023/02/06 17:57:06;;;;;;;18.55;16.70;;;;;;;-1.20;100.00;100610.97;15294027;19;20489;-80
2023/02/06 18:02:32;;;;;;;19.70;17.73;;;;;;;-1.27;100.00;100603.19;15291353;19;20402;-81
2023/02/06 18:08:01;;;;;;;20.20;18.08;;;;;;;-1.29;100.00;100564.41;15289655;19;20023;-80
2023/02/06 18:13:27;;;;;;;20.92;18.83;;;;;;;-1.38;100.00;100557.59;15293111;19;20017;-80
2023/02/06 18:18:52;;;;;;;20.85;18.75;;;;;;;-1.43;100.00;100559.44;15293203;19;20066;-81
2023/02/06 18:24:20;;;;;;;22.27;19.98;;;;;;;-1.50;100.00;100571.06;15290298;19;20038;-78
2023/02/06 18:29:47;;;;;;;25.27;22.55;;;;;;;-1.51;100.00;100585.19;15299891;19;20023;-81
2023/02/06 18:35:19;;;;;;;24.63;22.08;;;;;;;-1.52;100.00;100594.84;15297556;19;20031;-83
2023/02/06 18:40:48;;;;;;;25.20;22.42;;;;;;;-1.56;100.00;100599.34;15297652;19;20013;-81
2023/02/06 18:46:15;;;;;;;21.60;19.30;;;;;;;-1.59;100.00;100609.13;15296414;19;20037;-82
2023/02/06 18:51:41;;;;;;;20.65;17.75;;;;;;;-1.62;100.00;100599.47;15301760;19;20014;-78
2023/02/06 18:57:09;;;;;;;21.63;19.33;;;;;;;-1.64;100.00;100606.56;15289244;19;20011;-80
2023/02/06 19:02:34;;;;;;;19.70;17.77;;;;;;;-1.62;100.00;100609.16;15294372;19;20024;-79
2023/02/06 19:08:00;;;;;;;17.30;15.50;;;;;;;-1.67;100.00;100611.91;15294639;19;20086;-81
2023/02/06 19:13:28;;;;;;;16.25;14.65;;;;;;;-1.73;100.00;100594.38;15293075;19;20025;-78
2023/02/06 19:18:55;;;;;;;16.20;14.55;;;;;;;-1.78;100.00;100603.31;15292993;19;20050;-80
2023/02/06 19:24:25;;;;;;;16.67;15.02;;;;;;;-1.83;100.00;100592.81;15311223;19;20033;-82
2023/02/06 19:29:52;;;;;;;17.42;15.73;;;;;;;-1.86;100.00;100601.69;15304202;19;20031;-78
2023/02/06 19:35:27;;;;;;;15.15;13.75;;;;;;;-1.92;100.00;100604.44;15290516;19;20018;-79
2023/02/06 19:40:52;;;;;;;18.63;16.73;;;;;;;-1.96;100.00;100615.97;15279828;19;20007;-78
2023/02/06 19:46:23;;;;;;;17.40;15.60;;;;;;;-2.01;100.00;100609.88;15289426;19;20024;-78
2023/02/06 19:51:49;;;;;;;16.35;14.65;;;;;;;-2.06;100.00;100614.41;15283667;19;20015;-79
2023/02/06 19:57:18;;;;;;;16.90;15.10;;;;;;;-2.10;100.00;100625.91;15282212;19;20064;-78
2023/02/06 20:02:46;;;;;;;17.08;15.38;;;;;;;-2.15;100.00;100618.06;15288396;19;20039;-78
2023/02/06 20:08:13;;;;;;;17.95;15.60;;;;;;;-2.19;100.00;100606.69;15293296;19;20010;-78
2023/02/06 20:13:39;;;;;;;18.42;16.42;;;;;;;-2.21;100.00;100621.69;15279161;19;20025;-77
2023/02/06 20:19:15;;;;;;;19.10;16.92;;;;;;;-2.18;100.00;100653.31;15274849;19;20037;-79
2023/02/06 20:24:40;;;;;;;17.38;15.57;;;;;;;-2.21;100.00;100648.09;15291163;19;20022;-78
2023/02/06 20:30:06;;;;;;;16.50;15.00;;;;;;;-2.24;100.00;100642.84;15292126;19;20680;-79
2023/02/06 20:35:41;;;;;;;16.15;14.45;;;;;;;-2.24;100.00;100647.28;15290440;19;20073;-78
2023/02/06 20:41:09;;;;;;;14.55;13.15;;;;;;;-2.26;100.00;100664.91;15287819;19;20617;-80
2023/02/06 20:46:38;;;;;;;14.00;12.70;;;;;;;-2.33;100.00;100657.06;15300011;19;20487;-79
2023/02/06 20:52:06;;;;;;;14.13;12.82;;;;;;;-2.29;100.00;100662.31;15299666;19;20014;-78
2023/02/06 20:57:31;;;;;;;15.38;13.52;;;;;;;-2.29;100.00;100664.94;15316269;19;20018;-80
2023/02/06 21:02:57;;;;;;;13.85;12.45;;;;;;;-2.31;100.00;100670.25;15315408;19;20106;-81
2023/02/06 21:08:24;;;;;;;13.73;12.32;;;;;;;-2.39;100.00;100667.75;15298399;19;20414;-79
2023/02/06 21:13:49;;;;;;;14.98;13.43;;;;;;;-2.43;100.00;100668.66;15300107;19;20025;-79
2023/02/06 21:19:18;;;;;;;13.10;11.80;;;;;;;-2.48;100.00;100671.38;15298093;19;20017;-79
2023/02/06 21:24:46;;;;;;;13.45;12.15;;;;;;;-2.55;100.00;100664.47;15305173;19;20011;-81
2023/02/06 21:30:11;;;;;;;14.10;12.52;;;;;;;-2.63;100.00;100668.94;15312664;19;20026;-80
2023/02/06 21:35:38;;;;;;;13.50;11.82;;;;;;;-2.71;100.00;100670.84;15294638;19;20021;-80
2023/02/06 21:41:12;;;;;;;14.60;11.48;;;;;;;-2.83;100.00;100664.84;15302972;19;20066;-80
2023/02/06 21:46:37;;;;;;;13.00;11.57;;;;;;;-2.98;100.00;100660.66;15311507;19;20028;-80
2023/02/06 21:52:01;;;;;;;13.20;11.82;;;;;;;-3.11;100.00;100659.06;15317534;19;20018;-81
2023/02/06 21:57:28;;;;;;;12.55;11.25;;;;;;;-3.26;100.00;100682.06;15309114;19;20034;-80
2023/02/06 22:02:53;;;;;;;13.07;11.77;;;;;;;-3.31;100.00;100688.28;15313512;19;20398;-79
2023/02/06 22:08:18;;;;;;;13.65;12.20;;;;;;;-3.36;100.00;100684.84;15296234;19;20042;-81
2023/02/06 22:13:46;;;;;;;13.15;11.85;;;;;;;-3.38;100.00;100686.63;15309440;19;20422;-79
2023/02/06 22:19:13;;;;;;;14.48;11.10;;;;;;;-3.48;100.00;100692.00;15311131;19;20037;-80
2023/02/06 22:24:39;;;;;;;12.85;11.57;;;;;;;-3.51;100.00;100702.56;15315576;19;20037;-79
2023/02/06 22:30:08;;;;;;;12.70;11.40;;;;;;;-3.58;100.00;100707.03;15313160;19;20070;-80
2023/02/06 22:35:39;;;;;;;13.80;11.73;;;;;;;-3.67;100.00;100715.03;15298657;19;20098;-80
2023/02/06 22:41:06;;;;;;;14.63;12.20;;;;;;;-3.74;100.00;100711.56;15284204;19;20085;-78
2023/02/06 22:46:36;;;;;;;13.73;12.30;;;;;;;-3.74;100.00;100722.09;15282989;19;20022;-80
2023/02/06 22:52:01;;;;;;;14.45;12.55;;;;;;;-3.73;100.00;100702.78;15284139;19;20023;-79
2023/02/06 22:57:26;;;;;;;14.35;12.77;;;;;;;-3.75;100.00;100709.81;15288244;19;20300;-79
2023/02/06 23:02:54;;;;;;;14.85;13.43;;;;;;;-3.74;100.00;100726.50;15289066;19;20010;-78
2023/02/06 23:08:18;;;;;;;15.35;13.65;;;;;;;-3.76;100.00;100744.94;15290440;19;20018;-80
2023/02/06 23:13:43;;;;;;;15.35;12.85;;;;;;;-3.79;100.00;100749.38;15283716;19;20038;-78
2023/02/06 23:19:13;;;;;;;16.45;14.05;;;;;;;-3.78;100.00;100746.72;15287795;19;20090;-79
2023/02/06 23:24:38;;;;;;;15.80;14.02;;;;;;;-3.74;100.00;100748.44;15287456;19;20017;-79
2023/02/06 23:30:02;;;;;;;15.73;13.98;;;;;;;-3.73;100.00;100752.84;15284942;19;20014;-79
2023/02/06 23:35:31;;;;;;;17.85;14.50;;;;;;;-3.74;100.00;100755.47;15284446;19;20122;-82
2023/02/06 23:40:55;;;;;;;17.08;15.13;;;;;;;-3.75;100.00;100751.06;15284334;19;20029;-79
2023/02/06 23:46:21;;;;;;;17.58;15.38;;;;;;;-3.77;100.00;100745.84;15290686;19;20014;-79
2023/02/06 23:51:48;;;;;;;16.02;14.32;;;;;;;-3.78;100.00;100754.63;15311018;19;20010;-79
2023/02/06 23:57:13;;;;;;;16.38;14.77;;;;;;;-3.76;100.00;100762.50;15334516;19;20119;-79
